»·PEaware :: N5141 L52-L88

N5141 :: L52-L88

FLIGHT INFORMATION

Flight Status: Arrived
Operator: Privately registered:
United States
More flights under this callsign
Pilot: Edward S. (31002)
Aircraft: CESSNA 172 SKYHAWK
(C172)
More flights by this aircraft type
Origin: L52 Oceano Co
United States
Destination: L88 New Cuyama
United States
More flights between these airports :: More routes between these airports
Route: L52WYNNR L88
File this flight plan on PilotEdge
Remarks:
Altitude:
(Current/Filed)
3,500ft
Speed:
(Current/Filed)
90kts
Departed: 13-Oct-20 07:38 AM
Arrived: 13-Oct-20 08:38 AM
Distance/Time
Traveled:
47nm/1:00
Distance/Time
To Go:
Arrived

Flight Plot

Page will automatically refresh every two minutes.

Flight plan parsing failed; only flown route is shown


Map Options




Map Legend


Flown Route
Filed Route
Departure Airport
Arrival Airport
Navaid (VOR, NDB)
Fix

Horizontal Profiles

Position Reports

Time Latitude Longitude Heading Altitude Ground
Speed
13-Oct-20 07:34 35.102777 -120.623393 293 18ft 0kts
13-Oct-20 07:36 35.103339 -120.624641 302 18ft 19kts
13-Oct-20 07:36 35.103518 -120.625253 239 18ft 0kts
13-Oct-20 07:37 35.100124 -120.619829 122 116ft 70kts
13-Oct-20 07:39 35.087634 -120.620761 341 1154ft 80kts
13-Oct-20 07:39 35.092275 -120.602999 105 1907ft 81kts
13-Oct-20 07:41 35.073979 -120.581059 148 2926ft 81kts
13-Oct-20 07:41 35.065602 -120.582927 35 3311ft 104kts
13-Oct-20 07:42 35.049177 -120.575734 144 3905ft 80kts
13-Oct-20 07:43 35.037329 -120.554128 119 4014ft 76kts
13-Oct-20 07:44 35.019495 -120.542364 165 4158ft 68kts
13-Oct-20 07:45 35.001539 -120.537626 151 4138ft 75kts
13-Oct-20 07:46 34.984248 -120.524260 154 4007ft 84kts
13-Oct-20 07:47 34.970536 -120.502943 111 3982ft 82kts
13-Oct-20 07:48 34.966895 -120.479498 110 3876ft 60kts
13-Oct-20 07:49 34.959239 -120.456215 98 3476ft 73kts
13-Oct-20 07:50 34.960961 -120.436753 110 3469ft 59kts
13-Oct-20 07:51 34.947648 -120.415346 126 3098ft 102kts
13-Oct-20 07:52 34.940915 -120.404660 129 3281ft 94kts
13-Oct-20 07:53 34.940915 -120.404660 129 3281ft 94kts
13-Oct-20 07:54 34.940915 -120.404660 129 3281ft 94kts
13-Oct-20 07:55 34.928654 -120.404816 180 3952ft 61kts
13-Oct-20 07:56 34.918685 -120.411068 31 3731ft 87kts
13-Oct-20 07:57 34.908657 -120.385246 145 3221ft 89kts
13-Oct-20 07:58 34.895912 -120.360022 111 2627ft 96kts
13-Oct-20 07:59 34.884141 -120.335836 128 2063ft 96kts
13-Oct-20 08:00 34.879389 -120.330021 140 2002ft 105kts
13-Oct-20 08:01 34.866266 -120.296671 104 2280ft 127kts
13-Oct-20 08:02 34.858385 -120.260246 85 2946ft 94kts
13-Oct-20 08:03 34.855114 -120.228026 90 3732ft 89kts
13-Oct-20 08:04 34.852530 -120.194827 94 4412ft 91kts
13-Oct-20 08:05 34.847600 -120.163936 120 5097ft 94kts
13-Oct-20 08:06 34.823720 -120.154371 162 5405ft 98kts
13-Oct-20 08:07 34.799519 -120.140705 146 5431ft 96kts
13-Oct-20 08:08 34.802899 -120.113148 64 5520ft 82kts
13-Oct-20 08:09 34.809613 -120.083211 85 5824ft 95kts
13-Oct-20 08:10 34.812652 -120.049923 90 6100ft 100kts
13-Oct-20 08:11 34.809077 -120.016972 88 6656ft 100kts
13-Oct-20 08:12 34.812046 -119.983106 80 7151ft 104kts
13-Oct-20 08:13 34.816742 -119.946995 81 7459ft 114kts
13-Oct-20 08:14 34.821371 -119.909850 86 7842ft 111kts
13-Oct-20 08:15 34.826699 -119.872904 72 8176ft 111kts
13-Oct-20 08:16 34.840132 -119.839007 57 8487ft 112kts
13-Oct-20 08:17 34.847543 -119.808777 68 8633ft 113kts
13-Oct-20 08:18 34.847543 -119.808777 68 8633ft 113kts
13-Oct-20 08:19 34.847543 -119.808777 68 8633ft 113kts
13-Oct-20 08:20 34.850657 -119.800694 65 8760ft 110kts
13-Oct-20 08:21 34.862325 -119.766442 68 7858ft 98kts
13-Oct-20 08:22 34.871718 -119.735227 85 7103ft 88kts
13-Oct-20 08:23 34.879839 -119.710695 57 6618ft 85kts
13-Oct-20 08:24 34.896678 -119.685421 49 5655ft 102kts
13-Oct-20 08:25 34.917710 -119.659212 37 4213ft 111kts
13-Oct-20 08:26 34.935661 -119.646785 311 3302ft 91kts
13-Oct-20 08:27 34.948527 -119.665508 330 2749ft 84kts
13-Oct-20 08:28 34.949835 -119.689807 274 2660ft 62kts
13-Oct-20 08:29 34.940347 -119.674659 141 2778ft 91kts
13-Oct-20 08:30 34.935529 -119.700016 330 2775ft 98kts
13-Oct-20 08:31 34.933127 -119.679612 76 3211ft 96kts
13-Oct-20 08:32 34.934366 -119.685142 134 3632ft 101kts
13-Oct-20 08:33 34.946775 -119.676193 283 3297ft 141kts
13-Oct-20 08:34 34.941069 -119.700897 124 2917ft 132kts
13-Oct-20 08:35 34.917234 -119.685788 115 3246ft 91kts
13-Oct-20 08:36 34.936885 -119.678160 307 2533ft 110kts
13-Oct-20 08:37 34.941803 -119.690174 166 2203ft 0kts

Navigation Log

Ident Type
Flight plan parsing failed, navigation log unavailable